Forside
METAR-TAF:

METAR-TAF

Lufthavne :

Niamey, Niger

Breddekreds: 13-29N, længdekreds: 002-10E, højde: 223 m

Aktuelle vejr

Denne rapport blev lavet for 1 time og 10 minutter siden, kl. 12:00 UTC
Vind 5 kt fra nordnordøst, varierende mellem nordnordvest og øst
Temperatur 32°C
Fugtighed 4%
Tryk 1014 hPa
Sigt 10 km eller mere
ingen skyer under 1500m og ingen cumulonimbus

METAR: DRRN 221200Z 02005KT 330V080 CAVOK 32/M15 Q1014 NOSIG

Tid: 14:10 (13:10 UTC)

Vejrudsigter

Denne rapport blev lavet for 2 timer og 10 minutter siden, kl. 11:00 UTC
Foreløbig gælder fra 22 på 12 UTC til 23 på 18 UTC
Vind 8 kt fra nordøst
Sigt: 8000 m
Midlertidig
fra 22 på 17 UTC til 22 på 20 UTC
Sigt: 4000 m
Udbredt støv
Midlertidig
fra 23 på 06 UTC til 23 på 09 UTC
Sigt: 4000 m
Udbredt støv

TAF: DRRN 221100Z 2212/2318 04008KT 8000 NSC TEMPO 2217/2220 4000 DU TEMPO 2306/2309 4000 DU

Vejrobservationer og prognoser fra mere end 4000 lufthavne (METAR og TAF).

De gule og røde prikker repræsenterer de meteorologiske stationer.

Flyt musen over at se navnet på stationen.

Så klik over at se vejr observationer og prognoser.

At skifte det kort: Klik på de grønne knapper med et sort kors for at zoome ind; på den grønne knap med en bindestreg for at zoome ud; eller på de grønne pile for tilstødende kort.


METAR-TAF: